createdAt,value
2022-09-11T00:10:41.592Z,18.30
2022-09-11T00:15:40.754Z,18.20
2022-09-11T00:20:38.926Z,18.00
2022-09-11T00:30:38.795Z,17.90
2022-09-11T00:35:39.610Z,17.70
2022-09-11T00:40:46.588Z,17.90
2022-09-11T00:45:38.985Z,17.70
2022-09-11T00:50:42.647Z,17.80
2022-09-11T00:55:43.999Z,17.90
2022-09-11T01:05:41.133Z,17.80
2022-09-11T01:15:46.354Z,17.70
2022-09-11T01:20:47.235Z,17.60
2022-09-11T01:25:57.798Z,17.50
2022-09-11T01:30:42.300Z,17.60
2022-09-11T01:35:45.599Z,17.30
2022-09-11T01:40:44.889Z,17.40
2022-09-11T01:45:43.213Z,17.30
2022-09-11T01:50:44.123Z,17.40
2022-09-11T01:55:44.978Z,17.50
2022-09-11T02:00:40.130Z,17.60
2022-09-11T02:05:44.807Z,17.30
2022-09-11T02:15:53.392Z,17.10
2022-09-11T02:25:39.346Z,17.20
2022-09-11T02:30:40.470Z,17.30
2022-09-11T02:35:49.624Z,17.40
2022-09-11T02:50:40.213Z,17.30
2022-09-11T02:55:47.116Z,17.00
2022-09-11T03:00:39.413Z,17.10
2022-09-11T03:05:40.006Z,17.00
2022-09-11T03:25:39.861Z,16.80
2022-09-11T03:50:39.337Z,16.70
2022-09-11T04:05:41.065Z,16.50
2022-09-11T04:15:39.361Z,16.60
2022-09-11T04:20:39.420Z,16.50
2022-09-11T04:25:39.381Z,16.30
2022-09-11T04:35:39.708Z,16.40
2022-09-11T04:40:39.430Z,16.70
2022-09-11T04:45:40.657Z,16.60
2022-09-11T04:50:40.261Z,16.70
2022-09-11T04:55:39.461Z,16.60
2022-09-11T05:00:40.114Z,16.50
2022-09-11T05:05:39.521Z,16.30
2022-09-11T05:10:41.258Z,16.10
2022-09-11T05:15:39.525Z,16.20
2022-09-11T05:30:39.645Z,16.10
2022-09-11T05:35:39.845Z,16.00
2022-09-11T05:40:43.716Z,16.10
2022-09-11T05:45:39.675Z,16.00
2022-09-11T05:55:39.683Z,16.10
2022-09-11T06:00:41.360Z,16.20
2022-09-11T06:20:40.747Z,16.40
2022-09-11T06:25:39.695Z,16.50
2022-09-11T06:30:40.379Z,16.70
2022-09-11T06:40:39.763Z,16.90
2022-09-11T06:45:40.877Z,16.80
2022-09-11T06:50:39.963Z,17.10
2022-09-11T06:55:40.099Z,17.20
2022-09-11T07:00:39.786Z,17.40
2022-09-11T07:05:46.264Z,17.50
2022-09-11T07:10:40.159Z,17.70
2022-09-11T07:15:41.388Z,17.90
2022-09-11T07:20:40.424Z,18.10
2022-09-11T07:25:40.129Z,18.20
2022-09-11T07:30:39.981Z,18.40
2022-09-11T07:35:39.887Z,18.60
2022-09-11T07:40:39.937Z,18.80
2022-09-11T07:45:39.963Z,18.90
2022-09-11T07:50:39.935Z,19.10
2022-09-11T08:00:40.009Z,19.40
2022-09-11T08:10:40.150Z,19.60
2022-09-11T08:15:45.059Z,19.70
2022-09-11T08:25:40.522Z,19.80
2022-09-11T08:30:40.081Z,19.90
2022-09-11T08:35:40.070Z,20.00
2022-09-11T08:40:40.098Z,20.20
2022-09-11T08:45:40.139Z,20.30
2022-09-11T08:50:42.352Z,20.60
2022-09-11T08:55:51.754Z,20.80
2022-09-11T09:00:47.065Z,21.00
2022-09-11T09:05:53.270Z,21.10
2022-09-11T09:10:47.476Z,21.40
2022-09-11T09:15:48.935Z,21.60
2022-09-11T09:20:45.619Z,21.80
2022-09-11T09:25:42.027Z,22.00
2022-09-11T09:30:49.174Z,22.10
2022-09-11T09:35:42.360Z,22.40
2022-09-11T09:40:51.539Z,22.70
2022-09-11T09:46:00.238Z,22.60
2022-09-11T09:50:43.667Z,22.50
2022-09-11T09:55:41.672Z,22.20
2022-09-11T10:00:40.771Z,21.70
2022-09-11T10:05:42.049Z,21.60
2022-09-11T10:10:40.469Z,21.80
2022-09-11T10:15:41.934Z,22.20
2022-09-11T10:20:40.396Z,22.50
2022-09-11T10:25:48.848Z,22.80
2022-09-11T10:30:45.264Z,23.20
2022-09-11T10:35:49.562Z,23.90
2022-09-11T10:40:44.421Z,24.50
2022-09-11T10:45:40.461Z,26.40
2022-09-11T10:50:41.832Z,30.00
2022-09-11T10:55:47.435Z,28.60
2022-09-11T11:00:40.585Z,26.70
2022-09-11T11:05:59.006Z,25.50
2022-09-11T11:10:55.193Z,25.20
2022-09-11T11:15:59.847Z,25.10
2022-09-11T11:20:47.690Z,27.10
2022-09-11T11:25:56.521Z,31.00
2022-09-11T11:30:43.895Z,35.00
2022-09-11T11:35:56.796Z,36.60
2022-09-11T11:40:46.888Z,38.70
2022-09-11T11:45:46.971Z,39.40
2022-09-11T11:50:45.222Z,39.80
2022-09-11T11:55:47.340Z,39.60
2022-09-11T12:00:45.217Z,36.50
2022-09-11T12:05:40.719Z,36.40
2022-09-11T12:10:55.276Z,35.40
2022-09-11T12:16:01.364Z,33.10
2022-09-11T12:20:42.615Z,31.00
2022-09-11T12:25:40.747Z,29.80
2022-09-11T12:31:00.706Z,28.30
2022-09-11T12:35:48.060Z,27.70
2022-09-11T12:40:53.131Z,27.80
2022-09-11T12:45:41.240Z,27.70
2022-09-11T12:50:48.980Z,27.20
2022-09-11T12:55:51.524Z,26.80
2022-09-11T13:00:43.010Z,26.40
2022-09-11T13:05:43.473Z,26.30
2022-09-11T13:10:41.082Z,26.10
2022-09-11T13:15:42.370Z,26.00
2022-09-11T13:30:53.492Z,25.80
2022-09-11T13:40:46.518Z,25.60
2022-09-11T13:45:41.272Z,25.00
2022-09-11T13:55:45.365Z,25.70
2022-09-11T14:00:44.923Z,26.10
2022-09-11T14:10:40.981Z,26.40
2022-09-11T14:15:48.261Z,26.50
2022-09-11T14:20:43.947Z,26.40
2022-09-11T14:35:43.880Z,26.30
2022-09-11T14:40:50.100Z,26.10
2022-09-11T14:50:41.250Z,25.70
2022-09-11T14:55:41.118Z,25.90
2022-09-11T15:00:41.468Z,26.00
2022-09-11T15:05:43.159Z,25.90
2022-09-11T15:10:41.632Z,25.80
2022-09-11T15:15:41.394Z,26.00
2022-09-11T15:20:41.189Z,25.60
2022-09-11T15:25:41.391Z,25.50
2022-09-11T15:35:41.345Z,25.30
2022-09-11T15:45:42.042Z,25.60
2022-09-11T15:50:41.495Z,25.30
2022-09-11T15:55:41.275Z,24.90
2022-09-11T16:00:41.306Z,25.00
2022-09-11T16:05:41.991Z,25.30
2022-09-11T16:10:41.445Z,25.20
2022-09-11T16:20:42.933Z,25.00
2022-09-11T16:25:41.422Z,25.10
2022-09-11T16:30:44.298Z,25.20
2022-09-11T16:35:41.507Z,25.40
2022-09-11T16:45:51.474Z,25.20
2022-09-11T16:55:41.510Z,25.10
2022-09-11T17:10:44.492Z,24.90
2022-09-11T17:15:42.384Z,24.80
2022-09-11T17:20:41.663Z,24.60
2022-09-11T17:30:41.607Z,24.40
2022-09-11T17:40:41.637Z,24.20
2022-09-11T17:45:41.623Z,24.10
2022-09-11T17:50:41.591Z,24.00
2022-09-11T17:55:41.688Z,23.90
2022-09-11T18:00:41.656Z,23.80
2022-09-11T18:10:48.079Z,23.50
2022-09-11T18:20:42.385Z,23.30
2022-09-11T18:25:42.124Z,23.20
2022-09-11T18:30:42.056Z,22.80
2022-09-11T18:35:42.762Z,22.70
2022-09-11T18:55:41.769Z,22.40
2022-09-11T19:00:41.895Z,22.10
2022-09-11T19:05:41.838Z,21.90
2022-09-11T19:10:41.861Z,21.70
2022-09-11T19:15:41.864Z,22.00
2022-09-11T19:20:42.313Z,21.90
2022-09-11T19:25:42.523Z,21.70
2022-09-11T19:30:43.236Z,21.50
2022-09-11T19:35:41.872Z,21.70
2022-09-11T19:45:42.205Z,21.60
2022-09-11T19:50:42.682Z,21.30
2022-09-11T19:55:41.928Z,21.40
2022-09-11T20:05:43.021Z,21.20
2022-09-11T20:15:42.589Z,21.00
2022-09-11T20:20:45.312Z,20.80
2022-09-11T20:30:42.750Z,20.70
2022-09-11T20:40:44.650Z,20.50
2022-09-11T20:45:42.077Z,20.60
2022-09-11T21:00:43.587Z,20.30
2022-09-11T21:15:43.533Z,20.40
2022-09-11T21:20:51.813Z,20.10
2022-09-11T21:25:42.215Z,19.90
2022-09-11T21:30:42.221Z,19.80
2022-09-11T21:35:42.269Z,19.60
2022-09-11T21:40:42.177Z,19.50
2022-09-11T21:45:42.486Z,19.60
2022-09-11T21:50:42.303Z,19.70
2022-09-11T21:55:44.222Z,19.60
2022-09-11T22:00:43.268Z,19.40
2022-09-11T22:05:44.072Z,19.30
2022-09-11T22:15:45.803Z,19.20
2022-09-11T22:20:42.877Z,19.10
2022-09-11T22:25:43.674Z,19.00
2022-09-11T22:30:43.039Z,18.90
2022-09-11T22:55:43.671Z,19.00
2022-09-11T23:00:44.055Z,18.90
2022-09-11T23:15:42.480Z,18.70
2022-09-11T23:20:42.799Z,18.60
2022-09-11T23:30:42.758Z,18.50
2022-09-11T23:40:42.533Z,18.40
2022-09-11T23:45:42.549Z,18.50
